Time;durP1;ratioP1;P1;durP2;ratioP2;P2;SDS_P1;SDS_P2;PMS_P1;PMS_P2;Temp;Humidity;BMP_temperature;BMP_pressure;BME280_temperature;BME280_humidity;BME280_pressure;Samples;Min_cycle;Max_cycle;Signal;HPM_P1;HPM_P2
2022/11/28 00:00:58;;;;;;;19.70;9.23;;;5.30;99.90;;;;;;5046531;28;20036;-50
2022/11/28 00:03:24;;;;;;;19.42;9.50;;;5.40;99.90;;;;;;5046102;28;20048;-53
2022/11/28 00:05:50;;;;;;;17.63;9.85;;;5.10;99.90;;;;;;5046362;28;20410;-53
2022/11/28 00:08:16;;;;;;;18.95;10.73;;;5.30;99.90;;;;;;5046275;28;20049;-50
2022/11/28 00:10:42;;;;;;;18.15;9.82;;;5.20;99.90;;;;;;5045790;28;20033;-50
2022/11/28 00:13:08;;;;;;;19.67;10.25;;;5.20;99.90;;;;;;5046016;28;20112;-53
2022/11/28 00:15:33;;;;;;;16.20;9.55;;;5.10;99.90;;;;;;5045530;28;20102;-54
2022/11/28 00:17:59;;;;;;;22.92;11.05;;;5.40;99.90;;;;;;5045415;28;20584;-54
2022/11/28 00:20:25;;;;;;;15.27;8.80;;;5.20;99.90;;;;;;5060651;28;20429;-53
2022/11/28 00:22:51;;;;;;;16.52;10.00;;;5.30;99.90;;;;;;5045709;28;20126;-53
2022/11/28 00:25:17;;;;;;;19.55;10.18;;;5.70;99.90;;;;;;5045962;28;20041;-53
2022/11/28 00:27:42;;;;;;;20.58;10.40;;;5.40;99.90;;;;;;5046560;28;20110;-53
2022/11/28 00:30:09;;;;;;;19.02;10.13;;;5.40;99.90;;;;;;5046336;28;20048;-50
2022/11/28 00:32:34;;;;;;;26.40;11.98;;;5.40;99.90;;;;;;5046177;28;20053;-54
2022/11/28 00:35:00;;;;;;;24.17;11.90;;;5.40;99.90;;;;;;5046334;28;20056;-54
2022/11/28 00:37:26;;;;;;;17.20;9.57;;;5.40;99.90;;;;;;5046002;28;20045;-54
2022/11/28 00:39:51;;;;;;;20.02;10.23;;;5.20;99.90;;;;;;5046199;28;20071;-54
2022/11/28 00:42:19;;;;;;;22.50;10.23;;;5.20;99.90;;;;;;5046138;28;20055;-55
2022/11/28 00:44:46;;;;;;;21.05;10.77;;;5.50;99.90;;;;;;5046474;28;20040;-52
2022/11/28 00:47:11;;;;;;;17.27;10.13;;;5.40;99.90;;;;;;5046961;28;20087;-54
2022/11/28 00:49:37;;;;;;;21.30;10.50;;;5.40;99.90;;;;;;5045018;28;20072;-53
2022/11/28 00:52:03;;;;;;;27.00;11.68;;;5.40;99.90;;;;;;5046425;28;20082;-54
2022/11/28 00:54:28;;;;;;;19.17;10.52;;;5.40;99.90;;;;;;5045772;28;20056;-53
2022/11/28 00:56:54;;;;;;;22.00;10.85;;;5.40;99.90;;;;;;5045909;28;20056;-55
2022/11/28 00:59:20;;;;;;;24.63;10.75;;;5.40;99.90;;;;;;5045873;28;20037;-54
2022/11/28 01:01:45;;;;;;;18.38;10.43;;;5.40;99.90;;;;;;5045944;28;20110;-54
2022/11/28 01:04:14;;;;;;;23.30;11.15;;;5.40;99.90;;;;;;5046484;28;20482;-53
2022/11/28 01:06:42;;;;;;;17.33;10.18;;;5.30;99.90;;;;;;5052701;28;20276;-54
2022/11/28 01:09:17;;;;;;;20.25;11.10;;;5.40;99.90;;;;;;5053104;28;20041;-54
2022/11/28 01:11:44;;;;;;;18.25;11.00;;;5.40;99.90;;;;;;5053086;28;20048;-54
2022/11/28 01:14:11;;;;;;;29.02;10.82;;;5.20;99.90;;;;;;5052725;28;20032;-54
2022/11/28 01:16:37;;;;;;;19.98;11.13;;;5.20;99.90;;;;;;5052497;28;20047;-52
2022/11/28 01:19:03;;;;;;;19.90;11.60;;;5.40;99.90;;;;;;5052425;28;20053;-53
2022/11/28 01:21:29;;;;;;;23.58;10.85;;;6.20;99.90;;;;;;5052652;28;20055;-53
2022/11/28 01:23:54;;;;;;;27.30;13.10;;;5.40;99.90;;;;;;5052804;28;20132;-54
2022/11/28 01:26:23;;;;;;;20.98;10.98;;;6.70;99.90;;;;;;5052961;28;20045;-54
2022/11/28 01:28:49;;;;;;;17.55;10.48;;;5.40;99.90;;;;;;5053148;28;20126;-52
2022/11/28 01:31:17;;;;;;;23.77;11.82;;;5.40;99.90;;;;;;5053055;28;20048;-51
2022/11/28 01:33:44;;;;;;;21.85;11.88;;;5.50;99.90;;;;;;5052649;28;20379;-52
2022/11/28 01:36:11;;;;;;;22.85;11.77;;;5.30;99.90;;;;;;5052799;28;20483;-52
2022/11/28 01:38:37;;;;;;;25.67;12.45;;;5.50;99.90;;;;;;5053155;28;20048;-53
2022/11/28 01:41:03;;;;;;;26.67;12.15;;;6.10;99.90;;;;;;5052374;28;20415;-54
2022/11/28 01:43:29;;;;;;;23.92;12.02;;;5.50;99.90;;;;;;5067986;28;20048;-54
2022/11/28 01:45:55;;;;;;;23.75;11.45;;;5.50;99.90;;;;;;5052907;28;20060;-54
2022/11/28 01:48:31;;;;;;;19.27;10.98;;;5.50;99.90;;;;;;5052401;28;20686;-53
2022/11/28 01:51:01;;;;;;;20.73;11.02;;;5.50;99.90;;;;;;5051940;28;20048;-53
2022/11/28 01:53:34;;;;;;;21.20;11.70;;;5.30;99.90;;;;;;5052028;28;20475;-53
2022/11/28 01:56:11;;;;;;;27.58;12.73;;;5.30;99.90;;;;;;5052289;28;20094;-52
2022/11/28 01:58:42;;;;;;;24.73;11.73;;;5.50;99.90;;;;;;5052302;28;20043;-54
2022/11/28 02:01:09;;;;;;;24.90;12.43;;;5.50;99.90;;;;;;5051879;28;20041;-52
2022/11/28 02:03:57;;;;;;;20.63;11.93;;;5.60;99.90;;;;;;5052220;28;20485;-51
2022/11/28 02:06:24;;;;;;;25.73;12.52;;;5.50;99.90;;;;;;5052469;28;20076;-52
2022/11/28 02:08:54;;;;;;;20.40;12.00;;;5.50;99.90;;;;;;5052395;28;20053;-53
2022/11/28 02:11:40;;;;;;;26.67;13.20;;;5.30;99.90;;;;;;5052388;28;20048;-52
2022/11/28 02:14:20;;;;;;;23.30;12.48;;;7.00;99.90;;;;;;5052544;28;20533;-54
2022/11/28 02:17:30;;;;;;;30.67;13.85;;;5.60;99.90;;;;;;5049487;28;20037;-52
2022/11/28 02:20:29;;;;;;;22.83;12.55;;;5.60;99.90;;;;;;5049487;28;20105;-53
2022/11/28 02:23:11;;;;;;;20.70;11.52;;;5.60;99.90;;;;;;5049434;28;20044;-53
2022/11/28 02:25:46;;;;;;;31.70;14.23;;;5.60;99.90;;;;;;5049274;28;20076;-51
2022/11/28 02:28:35;;;;;;;34.88;15.40;;;5.60;99.90;;;;;;5049071;28;20051;-50
2022/11/28 02:31:32;;;;;;;20.88;11.70;;;5.60;99.90;;;;;;5048764;28;20048;-54
2022/11/28 02:34:03;;;;;;;18.52;10.75;;;5.40;99.90;;;;;;5048502;28;20120;-52
2022/11/28 02:37:00;;;;;;;30.52;13.18;;;6.10;99.90;;;;;;5048635;28;20041;-54
2022/11/28 02:39:47;;;;;;;27.70;13.38;;;5.60;99.90;;;;;;5047945;28;20441;-53
2022/11/28 02:42:27;;;;;;;20.50;11.13;;;5.60;99.90;;;;;;5047360;28;20051;-54
2022/11/28 02:45:17;;;;;;;24.42;12.80;;;5.40;99.90;;;;;;5047217;28;20501;-53
2022/11/28 02:47:50;;;;;;;32.42;13.40;;;5.60;99.90;;;;;;5062995;28;20045;-51
2022/11/28 02:50:31;;;;;;;21.13;11.48;;;5.40;99.90;;;;;;5047426;28;20044;-53
2022/11/28 02:53:05;;;;;;;16.63;10.63;;;5.40;99.90;;;;;;5047594;28;20114;-52
2022/11/28 02:55:31;;;;;;;21.73;11.95;;;5.60;99.90;;;;;;5048416;28;20048;-51
2022/11/28 02:57:57;;;;;;;18.10;11.13;;;5.60;99.90;;;;;;5048508;28;20045;-53
2022/11/28 03:00:34;;;;;;;22.10;12.32;;;5.60;99.90;;;;;;5048625;28;20107;-52
2022/11/28 03:03:08;;;;;;;21.45;11.70;;;5.60;99.90;;;;;;5048334;28;20032;-52
2022/11/28 03:05:43;;;;;;;21.30;11.85;;;5.60;99.90;;;;;;5048701;28;20103;-51
2022/11/28 03:08:29;;;;;;;24.77;13.13;;;5.60;99.90;;;;;;5048642;28;20044;-51
2022/11/28 03:11:02;;;;;;;23.13;12.40;;;5.70;99.90;;;;;;5048057;28;20041;-50
2022/11/28 03:13:52;;;;;;;19.92;11.02;;;5.70;99.90;;;;;;5048623;28;20052;-51
2022/11/28 03:16:35;;;;;;;26.88;13.38;;;5.70;99.90;;;;;;5048410;28;20120;-51
2022/11/28 03:19:08;;;;;;;19.20;11.98;;;5.70;99.90;;;;;;5048112;28;20057;-52
2022/11/28 03:22:01;;;;;;;22.50;12.55;;;5.70;99.90;;;;;;5048240;28;20045;-51
2022/11/28 03:24:32;;;;;;;;;;;5.70;99.90;;;;;;5048781;28;20095;-52
2022/11/28 03:27:09;;;;;;;24.98;13.75;;;5.70;99.90;;;;;;5047637;28;19920;-52
2022/11/28 03:29:42;;;;;;;27.13;12.95;;;5.70;99.90;;;;;;5047924;28;20112;-48
2022/11/28 03:32:34;;;;;;;23.85;13.80;;;5.50;99.90;;;;;;5047677;28;20119;-51
2022/11/28 03:35:12;;;;;;;20.42;13.02;;;5.70;99.90;;;;;;5047655;28;20048;-52
2022/11/28 03:37:52;;;;;;;25.13;14.77;;;5.70;99.90;;;;;;5047889;28;20570;-50
2022/11/28 03:40:23;;;;;;;22.33;12.98;;;6.40;99.90;;;;;;5047620;28;20494;-52
2022/11/28 03:42:56;;;;;;;23.00;13.13;;;5.70;99.90;;;;;;5047725;28;20087;-50
2022/11/28 03:45:25;;;;;;;22.13;13.48;;;5.80;99.90;;;;;;5047368;28;20554;-51
2022/11/28 03:48:07;;;;;;;23.83;12.77;;;5.80;99.90;;;;;;5047429;28;20379;-50
2022/11/28 03:50:42;;;;;;;25.35;13.35;;;5.80;99.90;;;;;;5047284;28;20048;-51
2022/11/28 03:53:16;;;;;;;23.33;13.40;;;5.80;99.90;;;;;;5047031;28;20097;-52
2022/11/28 03:55:47;;;;;;;24.45;13.77;;;5.80;99.90;;;;;;5047452;28;20128;-51
2022/11/28 03:58:55;;;;;;;32.67;15.80;;;5.80;99.90;;;;;;5047387;28;20056;-51
2022/11/28 04:01:20;;;;;;;34.55;16.90;;;5.90;99.90;;;;;;5038369;28;20088;-50
2022/11/28 04:04:14;;;;;;;26.08;15.68;;;5.90;99.90;;;;;;5047255;28;20080;-52
2022/11/28 04:07:07;;;;;;;28.00;14.82;;;5.90;99.90;;;;;;5047225;28;20363;-50
2022/11/28 04:09:44;;;;;;;25.05;14.82;;;5.90;99.90;;;;;;5047178;28;20043;-51
2022/11/28 04:12:16;;;;;;;28.17;15.13;;;6.00;99.90;;;;;;5047169;28;20044;-51
2022/11/28 04:14:58;;;;;;;25.50;13.70;;;6.80;99.90;;;;;;5046986;28;20125;-49
2022/11/28 04:17:56;;;;;;;25.77;16.33;;;5.90;99.90;;;;;;5047392;28;20056;-51
2022/11/28 04:20:31;;;;;;;24.90;15.68;;;6.00;99.90;;;;;;5024187;28;20121;-52
2022/11/28 04:23:05;;;;;;;27.95;15.35;;;6.00;99.90;;;;;;5047354;28;20115;-52
2022/11/28 04:25:34;;;;;;;42.03;20.60;;;6.00;99.90;;;;;;5047376;28;20052;-51
2022/11/28 04:28:05;;;;;;;37.25;19.50;;;6.00;99.90;;;;;;5046826;28;20669;-51
2022/11/28 04:30:33;;;;;;;46.13;21.73;;;6.10;99.90;;;;;;5047191;28;20075;-50
2022/11/28 04:33:03;;;;;;;42.30;20.23;;;6.00;99.90;;;;;;5046793;28;20596;-52
2022/11/28 04:35:32;;;;;;;38.13;19.75;;;6.10;99.90;;;;;;5046864;28;20044;-51
2022/11/28 04:38:00;;;;;;;58.75;22.83;;;6.10;99.90;;;;;;5046635;28;20093;-51
2022/11/28 04:40:29;;;;;;;48.20;22.55;;;6.30;99.90;;;;;;5046449;28;20510;-52
2022/11/28 04:42:59;;;;;;;50.72;23.48;;;6.10;99.90;;;;;;5046600;28;20055;-52
2022/11/28 04:45:35;;;;;;;57.22;24.45;;;6.20;99.90;;;;;;5046839;28;20080;-52
2022/11/28 04:48:01;;;;;;;54.30;24.17;;;6.20;99.90;;;;;;5046817;28;20045;-53
2022/11/28 04:50:36;;;;;;;61.13;24.73;;;6.20;99.90;;;;;;5046893;28;20033;-53
2022/11/28 04:53:29;;;;;;;51.80;24.60;;;6.10;99.90;;;;;;5046532;28;20043;-54
2022/11/28 04:56:00;;;;;;;;;;;6.80;99.90;;;;;;5047131;28;20045;-54
2022/11/28 04:58:34;;;;;;;73.10;28.38;;;6.30;99.90;;;;;;5047164;28;19923;-53
2022/11/28 05:01:05;;;;;;;82.18;30.60;;;6.30;99.90;;;;;;5046857;28;20041;-53
2022/11/28 05:03:31;;;;;;;68.10;27.95;;;6.00;99.90;;;;;;5047041;28;20048;-51
2022/11/28 05:05:57;;;;;;;71.22;30.48;;;6.30;99.90;;;;;;5046566;28;20597;-53
2022/11/28 05:08:22;;;;;;;85.80;31.25;;;6.20;99.90;;;;;;5046461;28;20041;-52
2022/11/28 05:10:48;;;;;;;64.97;30.15;;;6.70;99.90;;;;;;5046500;28;20037;-52
2022/11/28 05:13:14;;;;;;;86.95;34.17;;;6.40;99.90;;;;;;5045962;28;20531;-53
2022/11/28 05:15:40;;;;;;;89.60;33.50;;;6.40;99.90;;;;;;5046168;28;20053;-54
2022/11/28 05:18:06;;;;;;;70.70;32.22;;;6.20;99.90;;;;;;5045551;28;20434;-53
2022/11/28 05:20:32;;;;;;;89.82;36.15;;;6.20;99.90;;;;;;5046317;28;20140;-52
2022/11/28 05:22:57;;;;;;;147.73;41.00;;;6.40;99.90;;;;;;5045334;28;20045;-52
2022/11/28 05:25:23;;;;;;;64.95;33.47;;;6.40;99.90;;;;;;5044220;28;20047;-53
2022/11/28 05:27:48;;;;;;;113.47;37.20;;;6.50;99.90;;;;;;5045878;28;20159;-52
2022/11/28 05:30:14;;;;;;;72.78;32.72;;;6.50;99.90;;;;;;5045640;28;20171;-52
2022/11/28 05:32:40;;;;;;;67.50;34.72;;;6.50;99.90;;;;;;5045807;28;20048;-52
2022/11/28 05:35:06;;;;;;;69.70;33.67;;;6.60;99.90;;;;;;5045536;28;20374;-54
2022/11/28 05:37:33;;;;;;;80.63;35.53;;;6.60;99.90;;;;;;5045719;28;20108;-50
2022/11/28 05:39:58;;;;;;;105.68;38.03;;;6.50;99.90;;;;;;5046270;28;20059;-54
2022/11/28 05:42:29;;;;;;;72.32;33.38;;;6.40;99.90;;;;;;5046096;28;20475;-54
2022/11/28 05:44:55;;;;;;;90.68;37.10;;;6.40;99.90;;;;;;5046191;28;20045;-54
2022/11/28 05:47:22;;;;;;;95.75;36.60;;;7.30;99.90;;;;;;5045216;28;20049;-54
2022/11/28 05:49:48;;;;;;;73.43;34.33;;;6.60;99.90;;;;;;5045683;28;20041;-52
2022/11/28 05:52:13;;;;;;;90.00;36.15;;;6.90;99.90;;;;;;5046780;28;20052;-53
2022/11/28 05:54:39;;;;;;;89.90;36.08;;;6.60;99.90;;;;;;5049619;28;20041;-53
2022/11/28 05:57:06;;;;;;;81.60;36.08;;;6.70;99.90;;;;;;5049559;28;20537;-53
2022/11/28 05:59:31;;;;;;;72.85;35.55;;;6.60;99.90;;;;;;5049577;28;20114;-55
2022/11/28 06:01:57;;;;;;;93.95;38.88;;;6.70;99.90;;;;;;5049444;28;20049;-54
2022/11/28 06:04:23;;;;;;;116.10;39.45;;;6.50;99.90;;;;;;5049473;28;20120;-54
2022/11/28 06:06:50;;;;;;;73.97;36.95;;;6.60;99.90;;;;;;5049650;28;20041;-53
2022/11/28 06:09:16;;;;;;;70.45;33.85;;;6.70;99.90;;;;;;5049696;28;20037;-53
2022/11/28 06:11:42;;;;;;;69.70;35.70;;;6.70;99.90;;;;;;5049502;28;20047;-54
2022/11/28 06:14:09;;;;;;;72.25;36.05;;;6.80;99.90;;;;;;5049194;28;20049;-53
2022/11/28 06:16:35;;;;;;;93.00;40.25;;;6.80;99.90;;;;;;5049604;28;20614;-53
2022/11/28 06:19:02;;;;;;;91.78;38.08;;;6.70;99.90;;;;;;5049661;28;20092;-54
2022/11/28 06:21:29;;;;;;;70.05;36.50;;;6.70;99.90;;;;;;5049469;28;20056;-51
2022/11/28 06:23:56;;;;;;;79.72;39.33;;;6.70;99.90;;;;;;5049452;28;20056;-54
2022/11/28 06:26:23;;;;;;;66.82;36.80;;;6.80;99.90;;;;;;5049204;28;20041;-51
2022/11/28 06:28:49;;;;;;;75.50;37.53;;;8.30;99.90;;;;;;5049037;28;20037;-52
2022/11/28 06:31:18;;;;;;;82.97;38.30;;;6.90;99.90;;;;;;5048643;28;20454;-52
2022/11/28 06:33:44;;;;;;;74.47;36.92;;;7.60;99.90;;;;;;5048832;28;20398;-52
2022/11/28 06:36:11;;;;;;;65.95;34.92;;;7.60;99.90;;;;;;5048322;28;20830;-52
2022/11/28 06:38:37;;;;;;;98.47;41.88;;;6.80;99.90;;;;;;5048227;28;20086;-54
2022/11/28 06:41:06;;;;;;;69.28;35.47;;;6.80;99.90;;;;;;5048637;28;20041;-54
2022/11/28 06:43:31;;;;;;;77.00;38.83;;;6.90;99.90;;;;;;5048329;28;20052;-53
2022/11/28 06:45:57;;;;;;;64.47;35.92;;;6.80;99.90;;;;;;5048708;28;20414;-55
2022/11/28 06:48:24;;;;;;;66.82;34.10;;;6.80;99.90;;;;;;5048123;28;20508;-54
2022/11/28 06:50:50;;;;;;;91.15;38.58;;;6.90;99.90;;;;;;5048650;28;20102;-55
2022/11/28 06:53:16;;;;;;;76.60;35.20;;;6.90;99.90;;;;;;5048304;28;20045;-54
2022/11/28 06:55:42;;;;;;;63.38;33.88;;;6.90;99.90;;;;;;5048749;28;20052;-54
2022/11/28 06:58:08;;;;;;;77.28;33.72;;;7.00;99.90;;;;;;5048360;28;20045;-54
2022/11/28 07:00:34;;;;;;;80.20;35.42;;;6.80;99.90;;;;;;5048261;28;20052;-54
2022/11/28 07:03:00;;;;;;;101.70;36.17;;;6.90;99.90;;;;;;5047891;28;20041;-54
2022/11/28 07:05:29;;;;;;;44.40;29.40;;;7.70;99.90;;;;;;5048598;28;20120;-53
2022/11/28 07:07:58;;;;;;;61.28;31.33;;;6.90;99.90;;;;;;5048360;28;20053;-54
2022/11/28 07:10:25;;;;;;;59.58;28.88;;;7.40;99.90;;;;;;5048076;28;20084;-53
2022/11/28 07:12:55;;;;;;;45.15;26.95;;;7.00;99.90;;;;;;5047910;28;20470;-54
2022/11/28 07:15:22;;;;;;;71.55;31.00;;;6.90;99.90;;;;;;5047918;28;20044;-53
2022/11/28 07:17:49;;;;;;;44.90;27.42;;;6.90;99.90;;;;;;5047546;28;20088;-53
2022/11/28 07:20:15;;;;;;;60.13;27.77;;;6.80;99.90;;;;;;5047680;28;20134;-55
2022/11/28 07:22:42;;;;;;;51.33;27.83;;;7.10;99.90;;;;;;5047937;28;20052;-53
2022/11/28 07:25:08;;;;;;;48.72;26.38;;;6.90;99.90;;;;;;5047694;28;20486;-53
2022/11/28 07:27:34;;;;;;;53.70;27.33;;;6.90;99.90;;;;;;5048260;28;20049;-53
2022/11/28 07:30:00;;;;;;;53.00;27.17;;;7.50;99.90;;;;;;5047608;28;20045;-51
2022/11/28 07:32:25;;;;;;;38.88;24.25;;;6.90;99.90;;;;;;5047260;28;20049;-53
2022/11/28 07:34:51;;;;;;;58.95;27.63;;;6.90;99.90;;;;;;5047844;28;20040;-54
2022/11/28 07:37:17;;;;;;;61.35;26.55;;;6.90;99.90;;;;;;5047414;28;20040;-53
2022/11/28 07:39:43;;;;;;;47.33;25.17;;;6.90;99.90;;;;;;5047968;28;20048;-53
2022/11/28 07:42:10;;;;;;;45.70;25.05;;;7.50;99.90;;;;;;5046316;28;20510;-54
2022/11/28 07:44:35;;;;;;;48.67;25.55;;;7.90;99.90;;;;;;5047669;28;20434;-54
2022/11/28 07:47:01;;;;;;;54.95;25.65;;;7.00;99.90;;;;;;5047939;28;20106;-54
2022/11/28 07:49:27;;;;;;;70.15;26.25;;;6.90;99.90;;;;;;5047284;28;20039;-55
2022/11/28 07:51:53;;;;;;;43.30;22.92;;;7.10;99.90;;;;;;5047795;28;20047;-53
2022/11/28 07:54:18;;;;;;;47.92;24.30;;;6.80;99.90;;;;;;5047870;28;20057;-53
2022/11/28 07:56:44;;;;;;;42.13;21.63;;;6.90;99.90;;;;;;5047733;28;20049;-54
2022/11/28 07:59:11;;;;;;;52.85;23.38;;;7.00;99.90;;;;;;5045916;28;20053;-54
2022/11/28 08:01:36;;;;;;;47.13;24.00;;;7.00;99.90;;;;;;5047340;28;20041;-53
2022/11/28 08:04:06;;;;;;;39.00;21.08;;;6.90;99.90;;;;;;5047392;28;20370;-54
2022/11/28 08:06:36;;;;;;;39.35;20.27;;;7.00;99.90;;;;;;5047026;28;20249;-55
2022/11/28 08:09:02;;;;;;;34.85;20.25;;;7.20;99.90;;;;;;5047260;28;20048;-54
2022/11/28 08:11:29;;;;;;;51.55;23.08;;;7.00;99.90;;;;;;5045750;28;20155;-53
2022/11/28 08:13:56;;;;;;;36.72;19.63;;;7.00;99.90;;;;;;5045169;28;20040;-54
2022/11/28 08:16:24;;;;;;;45.97;21.45;;;7.00;99.90;;;;;;5046425;28;20041;-54
2022/11/28 08:18:50;;;;;;;41.47;20.77;;;7.00;99.90;;;;;;5046374;28;20160;-54
2022/11/28 08:21:19;;;;;;;46.05;22.02;;;8.00;99.90;;;;;;5046128;28;20040;-54
2022/11/28 08:23:45;;;;;;;43.60;21.13;;;7.80;99.90;;;;;;5046021;28;20045;-54
2022/11/28 08:26:13;;;;;;;38.88;20.63;;;7.90;99.90;;;;;;5047191;28;20048;-53
2022/11/28 08:28:40;;;;;;;56.22;23.75;;;7.10;99.90;;;;;;5046922;28;20068;-54
2022/11/28 08:31:15;;;;;;;44.78;21.42;;;6.90;99.90;;;;;;5047208;28;20037;-54
2022/11/28 08:33:41;;;;;;;44.97;21.35;;;7.10;99.90;;;;;;5046598;28;20766;-54
2022/11/28 08:36:07;;;;;;;44.00;20.95;;;7.10;99.90;;;;;;5046692;28;20055;-54
2022/11/28 08:38:33;;;;;;;49.08;21.83;;;7.20;99.90;;;;;;5046697;28;20049;-53
2022/11/28 08:41:01;;;;;;;73.05;25.40;;;7.10;99.90;;;;;;5047008;28;20094;-54
2022/11/28 08:43:26;;;;;;;45.90;20.77;;;7.30;99.90;;;;;;5046329;28;20045;-55
2022/11/28 08:45:52;;;;;;;42.17;20.92;;;7.20;99.90;;;;;;5046905;28;20041;-54
2022/11/28 08:48:18;;;;;;;42.55;20.20;;;7.20;99.90;;;;;;5046700;28;20052;-53
2022/11/28 08:50:48;;;;;;;46.55;21.38;;;7.20;99.90;;;;;;5061513;28;20111;-52
2022/11/28 08:53:13;;;;;;;38.08;19.67;;;7.50;99.90;;;;;;5046435;28;20059;-51
2022/11/28 08:55:43;;;;;;;35.72;19.00;;;8.00;99.90;;;;;;5046419;28;20048;-52
2022/11/28 08:58:12;;;;;;;42.88;21.70;;;7.60;99.90;;;;;;5046419;28;20823;-51
2022/11/28 09:00:39;;;;;;;34.67;19.42;;;7.20;99.90;;;;;;5046250;28;20113;-52
2022/11/28 09:03:04;;;;;;;49.25;21.85;;;7.00;99.90;;;;;;5046058;28;20064;-53
2022/11/28 09:05:31;;;;;;;56.45;23.30;;;7.10;99.90;;;;;;5046230;28;20045;-52
2022/11/28 09:07:57;;;;;;;37.50;19.42;;;7.20;99.90;;;;;;5061548;28;20040;-52
2022/11/28 09:10:24;;;;;;;41.72;21.45;;;7.20;99.90;;;;;;5046007;28;20403;-54
2022/11/28 09:12:50;;;;;;;65.20;23.33;;;8.00;99.90;;;;;;5045644;28;20052;-51
2022/11/28 09:15:17;;;;;;;49.10;23.23;;;7.30;99.90;;;;;;5045803;28;20111;-52
2022/11/28 09:17:46;;;;;;;50.75;22.63;;;7.30;99.90;;;;;;5045476;28;20064;-52
2022/11/28 09:20:12;;;;;;;42.83;20.85;;;7.30;99.90;;;;;;5045894;28;20091;-52
2022/11/28 09:22:39;;;;;;;71.68;25.48;;;7.20;99.90;;;;;;5045832;28;20049;-51
2022/11/28 09:25:05;;;;;;;71.60;25.90;;;7.40;99.90;;;;;;5045367;28;20693;-52
2022/11/28 09:27:31;;;;;;;103.85;26.42;;;7.40;99.90;;;;;;5050093;28;20033;-51
2022/11/28 09:29:57;;;;;;;65.07;24.75;;;7.40;99.90;;;;;;5049996;28;20036;-52
2022/11/28 09:32:22;;;;;;;50.60;23.42;;;7.80;99.90;;;;;;5033311;28;20079;-53
2022/11/28 09:34:49;;;;;;;52.50;22.58;;;7.20;99.90;;;;;;5048185;28;20110;-53
2022/11/28 09:37:15;;;;;;;61.55;22.83;;;8.00;99.90;;;;;;5048613;28;20057;-53
2022/11/28 09:39:41;;;;;;;51.88;22.67;;;7.30;99.90;;;;;;5048405;28;20398;-49
2022/11/28 09:42:12;;;;;;;45.90;21.50;;;7.20;99.90;;;;;;5048251;28;20055;-50
2022/11/28 09:44:47;;;;;;;54.00;23.67;;;7.40;99.90;;;;;;5048632;28;20540;-52
2022/11/28 09:47:20;;;;;;;39.80;20.10;;;7.50;99.90;;;;;;5048573;28;20048;-51
2022/11/28 09:50:09;;;;;;;94.68;28.08;;;7.30;99.90;;;;;;5048145;28;20875;-54
2022/11/28 09:53:17;;;;;;;61.20;23.17;;;7.50;99.90;;;;;;5048706;28;20056;-48
2022/11/28 09:55:50;;;;;;;62.83;24.30;;;7.50;99.90;;;;;;5041947;28;20063;-53
2022/11/28 09:58:26;;;;;;;57.00;23.15;;;7.80;99.90;;;;;;5047271;28;20044;-45
2022/11/28 10:01:04;;;;;;;54.28;23.10;;;7.70;99.90;;;;;;5047153;28;20041;-44
2022/11/28 10:03:47;;;;;;;53.83;20.92;;;7.60;99.90;;;;;;5047510;28;20103;-46
2022/11/28 10:06:24;;;;;;;37.33;19.52;;;7.60;99.90;;;;;;5047912;28;20068;-49
2022/11/28 10:09:13;;;;;;;40.92;19.50;;;7.60;99.90;;;;;;5047257;28;20087;-54
2022/11/28 10:12:27;;;;;;;43.40;20.05;;;7.60;99.90;;;;;;5047310;28;20040;-47
2022/11/28 10:15:04;;;;;;;49.45;21.35;;;7.60;99.90;;;;;;5046866;28;20546;-43
2022/11/28 10:18:12;;;;;;;37.95;18.73;;;7.60;99.90;;;;;;5046697;28;20084;-46
2022/11/28 10:20:43;;;;;;;44.40;20.25;;;7.60;99.90;;;;;;5041254;28;20076;-47
2022/11/28 10:23:35;;;;;;;79.97;24.42;;;7.60;99.90;;;;;;5047281;28;20053;-49
2022/11/28 10:26:06;;;;;;;42.58;20.77;;;7.70;99.90;;;;;;5039070;28;20053;-45
2022/11/28 10:28:36;;;;;;;54.13;21.10;;;7.70;99.90;;;;;;5047151;28;20048;-49
2022/11/28 10:31:26;;;;;;;48.20;20.70;;;7.70;99.90;;;;;;5034890;28;20530;-48
2022/11/28 10:34:29;;;;;;;57.08;21.40;;;7.70;99.90;;;;;;5046731;28;20087;-47
2022/11/28 10:37:14;;;;;;;;;;;7.80;99.90;;;;;;5046562;28;20053;-47
2022/11/28 10:39:43;;;;;;;53.50;20.95;;;7.80;99.90;;;;;;5046201;28;20765;-47
2022/11/28 10:42:48;;;;;;;33.30;18.92;;;7.80;99.90;;;;;;5046272;28;20122;-50
2022/11/28 10:45:58;;;;;;;44.92;20.50;;;7.80;99.90;;;;;;5046401;28;20047;-50
2022/11/28 10:48:30;;;;;;;38.63;19.45;;;7.90;99.90;;;;;;5035336;28;20049;-48
2022/11/28 10:51:11;;;;;;;54.25;20.52;;;7.90;99.90;;;;;;5046239;28;20112;-49
2022/11/28 10:53:46;;;;;;;71.30;22.63;;;7.90;99.90;;;;;;5061878;28;20048;-46
2022/11/28 10:56:32;;;;;;;66.53;23.05;;;7.90;99.90;;;;;;5046885;28;20148;-53
2022/11/28 10:59:19;;;;;;;42.13;20.00;;;7.80;99.90;;;;;;5045743;28;20848;-47
2022/11/28 11:01:45;;;;;;;37.60;18.75;;;7.90;99.90;;;;;;5046460;28;20179;-51
2022/11/28 11:04:18;;;;;;;49.58;20.65;;;8.10;99.90;;;;;;5047544;28;20041;-51
2022/11/28 11:07:13;;;;;;;35.78;18.23;;;6.00;99.90;;;;;;5046270;28;20973;-51
2022/11/28 11:09:38;;;;;;;40.55;18.13;;;7.80;99.90;;;;;;5038517;28;20553;-53
2022/11/28 11:12:11;;;;;;;33.58;17.98;;;7.90;99.90;;;;;;5061329;28;20053;-49
2022/11/28 11:14:42;;;;;;;34.20;17.55;;;7.90;99.90;;;;;;5046178;28;20068;-48
2022/11/28 11:17:32;;;;;;;36.42;19.52;;;8.00;99.90;;;;;;5045206;28;20061;-46
2022/11/28 11:19:58;;;;;;;41.00;19.23;;;7.90;99.90;;;;;;5061279;28;20061;-49
2022/11/28 11:22:30;;;;;;;49.45;21.13;;;7.90;99.90;;;;;;5046116;28;20110;-52
2022/11/28 11:25:16;;;;;;;91.27;24.63;;;8.00;99.90;;;;;;5045710;28;20033;-52
2022/11/28 11:27:56;;;;;;;52.53;19.77;;;7.90;99.90;;;;;;5046060;28;20044;-56
2022/11/28 11:30:37;;;;;;;31.35;17.83;;;8.60;99.90;;;;;;5049665;28;20119;-56
2022/11/28 11:33:05;;;;;;;53.90;20.33;;;7.90;99.90;;;;;;5044084;28;20053;-60
2022/11/28 11:35:42;;;;;;;40.13;18.85;;;7.90;99.90;;;;;;5061113;28;20549;-57
2022/11/28 11:38:20;;;;;;;47.55;20.13;;;7.90;99.90;;;;;;5044548;28;20052;-54
2022/11/28 11:40:46;;;;;;;62.03;23.17;;;7.80;99.90;;;;;;5045853;28;20033;-55
2022/11/28 11:43:30;;;;;;;48.75;21.02;;;8.00;99.90;;;;;;5045225;28;20925;-54
2022/11/28 11:46:21;;;;;;;76.97;23.33;;;8.00;99.90;;;;;;5045751;28;20033;-51
2022/11/28 11:48:51;;;;;;;53.87;20.90;;;8.00;99.90;;;;;;5044170;28;20061;-56
2022/11/28 11:51:31;;;;;;;62.55;22.92;;;8.50;99.90;;;;;;5045804;28;20043;-56
2022/11/28 11:54:04;;;;;;;75.28;22.30;;;8.10;99.90;;;;;;5045486;28;20090;-56
2022/11/28 11:56:37;;;;;;;48.88;21.00;;;8.10;99.90;;;;;;5060769;28;20053;-55
2022/11/28 11:59:14;;;;;;;50.20;21.17;;;8.00;99.90;;;;;;5045153;28;20124;-55
2022/11/28 12:01:41;;;;;;;45.47;20.38;;;8.10;99.90;;;;;;5060157;28;20045;-57
2022/11/28 12:04:27;;;;;;;67.15;22.35;;;8.10;99.90;;;;;;5043235;28;20131;-52
2022/11/28 12:06:57;;;;;;;82.13;23.15;;;8.10;99.90;;;;;;5044851;28;20116;-52
2022/11/28 12:09:47;;;;;;;67.60;23.50;;;8.10;99.90;;;;;;5043533;28;20067;-52
2022/11/28 12:12:21;;;;;;;57.30;21.08;;;8.10;99.90;;;;;;5044594;28;20098;-52
2022/11/28 12:14:48;;;;;;;79.03;24.80;;;8.10;99.90;;;;;;5044981;28;20475;-55
2022/11/28 12:17:40;;;;;;;58.03;21.65;;;8.40;99.90;;;;;;5044574;28;20061;-53
2022/11/28 12:20:17;;;;;;;39.35;19.08;;;8.10;99.90;;;;;;5042831;28;20122;-55
2022/11/28 12:23:20;;;;;;;47.58;21.13;;;8.10;99.90;;;;;;5045152;28;20533;-54
2022/11/28 12:26:01;;;;;;;68.97;23.00;;;8.10;99.90;;;;;;5045509;28;20044;-53
2022/11/28 12:28:48;;;;;;;45.20;20.48;;;8.10;99.90;;;;;;5060409;28;20127;-51
2022/11/28 12:31:24;;;;;;;65.28;22.33;;;8.10;99.90;;;;;;5025336;28;20558;-53
2022/11/28 12:34:20;;;;;;;48.00;21.25;;;7.10;99.90;;;;;;5045158;28;20132;-51
2022/11/28 12:36:46;;;;;;;63.40;21.52;;;8.10;99.90;;;;;;5045012;28;20442;-50
2022/11/28 12:39:20;;;;;;;37.28;19.30;;;8.10;99.90;;;;;;5044555;28;20053;-49
2022/11/28 12:42:04;;;;;;;59.20;22.65;;;8.40;99.90;;;;;;5044679;28;20049;-53
2022/11/28 12:44:45;;;;;;;41.75;19.35;;;8.10;99.90;;;;;;5044631;28;20047;-53
2022/11/28 12:47:38;;;;;;;54.85;20.75;;;8.10;99.90;;;;;;5044722;28;20040;-53
2022/11/28 12:50:12;;;;;;;;;;;8.10;99.90;;;;;;5045118;28;20036;-58
2022/11/28 12:53:03;;;;;;;34.90;18.42;;;8.20;99.90;;;;;;5044271;28;19920;-57
2022/11/28 12:55:44;;;;;;;68.45;21.38;;;8.20;99.90;;;;;;5044296;28;20490;-54
2022/11/28 12:58:41;;;;;;;56.75;22.52;;;8.20;99.90;;;;;;5044371;28;20045;-54
2022/11/28 13:01:32;;;;;;;45.08;20.50;;;8.20;99.90;;;;;;5035474;28;20522;-56
2022/11/28 13:04:36;;;;;;;34.67;18.92;;;8.20;99.90;;;;;;5044580;28;20045;-56
2022/11/28 13:07:13;;;;;;;51.72;20.65;;;8.30;99.90;;;;;;4985340;28;20046;-56